createdAt,value
2023-05-11T00:00:11.363Z,87.20
2023-05-11T00:02:40.238Z,86.87
2023-05-11T00:05:09.415Z,87.20
2023-05-11T00:07:38.076Z,87.06
2023-05-11T00:10:07.537Z,87.02
2023-05-11T00:12:36.695Z,86.63
2023-05-11T00:15:05.774Z,86.60
2023-05-11T00:17:35.522Z,86.61
2023-05-11T00:20:04.358Z,86.52
2023-05-11T00:22:32.670Z,86.80
2023-05-11T00:25:01.031Z,86.87
2023-05-11T00:27:29.390Z,86.41
2023-05-11T00:29:58.133Z,86.75
2023-05-11T00:32:28.103Z,87.03
2023-05-11T00:34:57.838Z,86.49
2023-05-11T00:37:29.558Z,86.79
2023-05-11T00:39:57.931Z,86.52
2023-05-11T00:42:28.498Z,86.64
2023-05-11T00:44:56.864Z,86.94
2023-05-11T00:47:27.718Z,86.79
2023-05-11T00:49:57.821Z,86.98
2023-05-11T00:52:28.737Z,86.52
2023-05-11T00:54:57.099Z,86.55
2023-05-11T00:57:26.908Z,86.76
2023-05-11T00:59:55.256Z,86.61
2023-05-11T01:02:23.812Z,87.11
2023-05-11T01:04:52.880Z,86.79
2023-05-11T01:07:28.199Z,87.04
2023-05-11T01:10:02.417Z,87.01
2023-05-11T01:12:37.361Z,87.10
2023-05-11T01:15:11.732Z,86.78
2023-05-11T01:17:47.319Z,86.78
2023-05-11T01:20:19.918Z,86.68
2023-05-11T01:23:18.152Z,86.98
2023-05-11T01:26:22.290Z,86.92
2023-05-11T01:29:11.758Z,87.04
2023-05-11T01:31:43.992Z,86.81
2023-05-11T01:34:18.179Z,87.21
2023-05-11T01:36:53.399Z,86.86
2023-05-11T01:39:36.324Z,87.06
2023-05-11T01:42:09.377Z,87.02
2023-05-11T01:44:41.101Z,86.87
2023-05-11T01:47:12.997Z,86.93
2023-05-11T01:49:45.068Z,87.08
2023-05-11T01:52:15.402Z,86.53
2023-05-11T01:54:45.623Z,86.54
2023-05-11T01:57:15.121Z,86.47
2023-05-11T01:59:43.877Z,86.34
2023-05-11T02:02:16.609Z,86.66
2023-05-11T02:04:45.877Z,86.27
2023-05-11T02:07:17.376Z,86.73
2023-05-11T02:09:47.025Z,86.16
2023-05-11T02:12:18.930Z,86.71
2023-05-11T02:14:48.601Z,86.33
2023-05-11T02:17:31.658Z,86.21
2023-05-11T02:20:01.996Z,86.91
2023-05-11T02:22:31.931Z,86.79
2023-05-11T02:25:00.336Z,86.99
2023-05-11T02:27:29.192Z,86.93
2023-05-11T02:29:57.654Z,86.44
2023-05-11T02:32:31.881Z,86.57
2023-05-11T02:35:06.408Z,86.03
2023-05-11T02:37:40.499Z,86.27
2023-05-11T02:40:16.487Z,86.23
2023-05-11T02:42:49.961Z,86.47
2023-05-11T02:45:20.499Z,86.69
2023-05-11T02:47:55.178Z,86.59
2023-05-11T02:50:25.594Z,86.18
2023-05-11T02:52:57.981Z,86.65
2023-05-11T02:55:31.038Z,86.24
2023-05-11T02:57:59.888Z,86.33
2023-05-11T03:00:29.647Z,86.39
2023-05-11T03:02:59.793Z,86.39
2023-05-11T03:05:29.603Z,86.35
2023-05-11T03:08:00.590Z,86.56
2023-05-11T03:10:30.166Z,86.39
2023-05-11T03:12:58.982Z,86.59
2023-05-11T03:15:29.611Z,86.18
2023-05-11T03:18:01.149Z,86.82
2023-05-11T03:20:32.835Z,86.44
2023-05-11T03:23:02.631Z,86.24
2023-05-11T03:25:31.314Z,85.92
2023-05-11T03:28:01.513Z,85.85
2023-05-11T03:30:31.094Z,86.43
2023-05-11T03:33:00.926Z,86.51
2023-05-11T03:35:32.411Z,86.01
2023-05-11T03:38:01.305Z,86.34
2023-05-11T03:40:33.379Z,86.01
2023-05-11T03:43:05.115Z,86.54
2023-05-11T03:45:35.033Z,86.11
2023-05-11T03:48:06.146Z,86.26
2023-05-11T03:50:35.452Z,86.51
2023-05-11T03:53:05.430Z,85.99
2023-05-11T03:55:34.037Z,86.08
2023-05-11T03:58:04.264Z,86.03
2023-05-11T04:00:33.011Z,86.03
2023-05-11T04:03:06.228Z,86.54
2023-05-11T04:05:34.723Z,86.23
2023-05-11T04:08:04.114Z,86.04
2023-05-11T04:10:32.612Z,86.25
2023-05-11T04:13:00.967Z,85.79
2023-05-11T04:15:30.987Z,85.91
2023-05-11T04:17:59.380Z,86.10
2023-05-11T04:20:30.707Z,86.34
2023-05-11T04:22:59.075Z,86.36
2023-05-11T04:25:28.881Z,85.68
2023-05-11T04:27:57.357Z,85.86
2023-05-11T04:30:25.762Z,85.85
2023-05-11T04:32:54.309Z,85.87
2023-05-11T04:35:23.727Z,85.70
2023-05-11T04:37:53.413Z,86.01
2023-05-11T04:40:21.787Z,85.11
2023-05-11T04:42:51.768Z,85.45
2023-05-11T04:45:20.365Z,85.94
2023-05-11T04:47:48.786Z,85.54
2023-05-11T04:50:17.475Z,85.86
2023-05-11T04:52:46.184Z,85.32
2023-05-11T04:55:16.256Z,85.98
2023-05-11T04:57:44.630Z,85.58
2023-05-11T05:00:13.579Z,85.45
2023-05-11T05:02:42.057Z,85.89
2023-05-11T05:05:11.310Z,85.69
2023-05-11T05:07:41.223Z,85.17
2023-05-11T05:10:12.052Z,85.74
2023-05-11T05:12:41.938Z,85.76
2023-05-11T05:15:11.433Z,85.52
2023-05-11T05:17:39.839Z,85.88
2023-05-11T05:20:09.426Z,85.67
2023-05-11T05:22:37.818Z,85.95
2023-05-11T05:25:07.045Z,85.94
2023-05-11T05:27:35.763Z,86.01
2023-05-11T05:30:06.696Z,85.80
2023-05-11T05:32:35.079Z,85.86
2023-05-11T05:35:04.112Z,86.40
2023-05-11T05:37:32.845Z,86.17
2023-05-11T05:40:01.172Z,85.84
2023-05-11T05:42:32.404Z,86.17
2023-05-11T05:45:00.931Z,86.44
2023-05-11T05:47:31.196Z,86.11
2023-05-11T05:49:59.679Z,85.82
2023-05-11T05:52:28.061Z,85.83
2023-05-11T05:54:56.503Z,86.30
2023-05-11T05:57:25.018Z,86.65
2023-05-11T05:59:53.423Z,86.37
2023-05-11T06:02:21.918Z,86.44
2023-05-11T06:04:51.735Z,85.99
2023-05-11T06:07:20.156Z,86.53
2023-05-11T06:09:48.505Z,85.83
2023-05-11T06:12:16.874Z,86.79
2023-05-11T06:14:45.231Z,86.55
2023-05-11T06:17:13.624Z,86.36
2023-05-11T06:19:42.533Z,86.95
2023-05-11T06:22:12.254Z,86.52
2023-05-11T06:24:40.628Z,86.16
2023-05-11T06:27:09.158Z,86.49
2023-05-11T06:29:38.234Z,86.85
2023-05-11T06:32:07.432Z,86.60
2023-05-11T06:34:35.890Z,86.77
2023-05-11T06:37:04.379Z,86.79
2023-05-11T06:39:37.643Z,86.51
2023-05-11T06:42:06.928Z,86.50
2023-05-11T06:44:38.631Z,86.48
2023-05-11T06:47:08.231Z,86.73
2023-05-11T06:49:36.924Z,86.52
2023-05-11T06:52:05.324Z,86.76
2023-05-11T06:54:43.969Z,86.64
2023-05-11T06:57:14.416Z,86.24
2023-05-11T06:59:44.004Z,86.81
2023-05-11T07:02:12.480Z,86.64
2023-05-11T07:04:40.888Z,86.48
2023-05-11T07:07:11.280Z,86.68
2023-05-11T07:09:41.902Z,86.47
2023-05-11T07:12:12.169Z,86.31
2023-05-11T07:14:40.548Z,86.77
2023-05-11T07:17:09.305Z,86.58
2023-05-11T07:19:37.732Z,86.68
2023-05-11T07:22:06.239Z,86.13
2023-05-11T07:24:34.674Z,86.56
2023-05-11T07:27:03.030Z,86.51
2023-05-11T07:29:32.939Z,86.46
2023-05-11T07:32:01.385Z,86.07
2023-05-11T07:34:31.495Z,85.76
2023-05-11T07:36:59.984Z,85.68
2023-05-11T07:39:28.365Z,85.76
2023-05-11T07:41:56.776Z,86.17
2023-05-11T07:44:35.069Z,85.91
2023-05-11T07:47:03.460Z,85.98
2023-05-11T07:49:42.877Z,86.16
2023-05-11T07:52:12.162Z,85.78
2023-05-11T07:54:40.985Z,86.25
2023-05-11T07:57:11.320Z,85.67
2023-05-11T07:59:41.636Z,86.16
2023-05-11T08:02:12.933Z,86.18
2023-05-11T08:04:41.894Z,86.11
2023-05-11T08:07:10.330Z,86.55
2023-05-11T08:09:38.816Z,85.98
2023-05-11T08:12:07.496Z,86.30
2023-05-11T08:14:36.121Z,86.29
2023-05-11T08:17:06.353Z,85.90
2023-05-11T08:19:34.822Z,86.15
2023-05-11T08:22:03.280Z,86.04
2023-05-11T08:24:33.489Z,86.07
2023-05-11T08:27:02.805Z,85.83
2023-05-11T08:29:32.690Z,86.00
2023-05-11T08:32:01.342Z,85.46
2023-05-11T08:34:33.683Z,85.73
2023-05-11T08:37:03.043Z,85.28
2023-05-11T08:39:46.095Z,85.18
2023-05-11T08:42:17.681Z,85.36
2023-05-11T08:44:46.213Z,85.32
2023-05-11T08:47:21.868Z,84.91
2023-05-11T08:49:54.079Z,84.88
2023-05-11T08:52:22.508Z,84.51
2023-05-11T08:54:51.077Z,84.42
2023-05-11T08:57:20.295Z,84.34
2023-05-11T08:59:50.329Z,84.28
2023-05-11T09:02:20.989Z,84.50
2023-05-11T09:04:52.834Z,84.44
2023-05-11T09:07:22.910Z,84.37
2023-05-11T09:09:51.324Z,84.17
2023-05-11T09:12:20.757Z,84.04
2023-05-11T09:14:49.574Z,84.17
2023-05-11T09:17:18.032Z,84.15
2023-05-11T09:20:01.125Z,83.85
2023-05-11T09:22:32.067Z,83.87
2023-05-11T09:25:03.568Z,83.60
2023-05-11T09:27:34.163Z,83.47
2023-05-11T09:30:12.425Z,83.29
2023-05-11T09:32:51.741Z,83.44
2023-05-11T09:35:25.733Z,83.64
2023-05-11T09:38:06.391Z,83.67
2023-05-11T09:40:36.849Z,83.94
2023-05-11T09:43:17.228Z,83.98
2023-05-11T09:45:47.380Z,83.74
2023-05-11T09:48:26.893Z,83.57
2023-05-11T09:51:03.490Z,83.59
2023-05-11T09:53:40.917Z,83.51
2023-05-11T09:56:09.960Z,83.53
2023-05-11T09:58:54.418Z,83.37
2023-05-11T10:01:30.955Z,83.46
2023-05-11T10:04:17.782Z,83.60
2023-05-11T10:06:53.015Z,83.59
2023-05-11T10:09:25.557Z,83.35
2023-05-11T10:11:54.948Z,83.24
2023-05-11T10:14:25.441Z,83.03
2023-05-11T10:16:54.980Z,83.03
2023-05-11T10:19:23.690Z,82.94
2023-05-11T10:21:54.470Z,82.90
2023-05-11T10:24:23.201Z,82.73
2023-05-11T10:26:52.014Z,82.69
2023-05-11T10:29:20.825Z,82.33
2023-05-11T10:31:51.120Z,82.40
2023-05-11T10:34:23.268Z,82.53
2023-05-11T10:36:53.923Z,82.76
2023-05-11T10:39:22.730Z,82.72
2023-05-11T10:42:04.566Z,82.89
2023-05-11T10:44:57.299Z,83.00
2023-05-11T10:47:47.575Z,83.02
2023-05-11T10:50:29.438Z,83.29
2023-05-11T10:53:23.500Z,83.02
2023-05-11T10:56:10.103Z,82.58
2023-05-11T10:58:59.113Z,82.91
2023-05-11T11:01:38.220Z,83.07
2023-05-11T11:04:09.080Z,82.87
2023-05-11T11:06:39.047Z,83.07
2023-05-11T11:09:13.615Z,83.07
2023-05-11T11:11:46.030Z,83.18
2023-05-11T11:14:16.307Z,83.42
2023-05-11T11:17:23.993Z,83.44
2023-05-11T11:19:52.588Z,83.49
2023-05-11T11:22:47.509Z,83.65
2023-05-11T11:25:54.077Z,83.91
2023-05-11T11:28:22.565Z,84.08
2023-05-11T11:31:27.625Z,83.86
2023-05-11T11:33:58.999Z,83.62
2023-05-11T11:37:03.732Z,83.71
2023-05-11T11:40:09.016Z,83.35
2023-05-11T11:42:44.766Z,83.65
2023-05-11T11:45:34.770Z,83.38
2023-05-11T11:48:13.294Z,83.85
2023-05-11T11:50:46.983Z,84.01
2023-05-11T11:53:53.056Z,83.73
2023-05-11T11:56:41.507Z,83.21
2023-05-11T11:59:14.126Z,83.88
2023-05-11T12:01:43.987Z,83.67
2023-05-11T12:04:42.045Z,83.54
2023-05-11T12:07:13.321Z,83.46
2023-05-11T12:09:44.690Z,83.41
2023-05-11T12:12:13.812Z,83.29
2023-05-11T12:14:49.075Z,83.49
2023-05-11T12:17:25.585Z,83.55
2023-05-11T12:19:54.096Z,83.73
2023-05-11T12:22:26.608Z,83.72
2023-05-11T12:25:00.510Z,83.69
2023-05-11T12:27:29.142Z,83.91
2023-05-11T12:29:59.592Z,83.79
2023-05-11T12:32:29.258Z,83.83
2023-05-11T12:35:02.277Z,83.79
2023-05-11T12:37:31.556Z,83.86
2023-05-11T12:40:00.586Z,83.76
2023-05-11T12:42:29.125Z,84.05
2023-05-11T12:44:58.978Z,83.63
2023-05-11T12:47:27.598Z,83.48
2023-05-11T12:49:56.177Z,83.58
2023-05-11T12:52:25.996Z,83.83
2023-05-11T12:55:00.242Z,83.95
2023-05-11T12:57:31.014Z,83.83
2023-05-11T13:00:12.852Z,83.90
2023-05-11T13:02:51.167Z,83.97
2023-05-11T13:05:24.122Z,83.82
2023-05-11T13:07:58.792Z,83.63
2023-05-11T13:10:27.935Z,83.51
2023-05-11T13:12:56.849Z,83.47
2023-05-11T13:15:28.504Z,83.52
2023-05-11T13:17:59.278Z,84.05
2023-05-11T13:20:29.791Z,83.76
2023-05-11T13:23:06.572Z,83.51
2023-05-11T13:25:37.349Z,83.59
2023-05-11T13:28:05.921Z,83.33
2023-05-11T13:30:36.916Z,83.33
2023-05-11T13:33:05.411Z,83.65
2023-05-11T13:35:33.849Z,83.21
2023-05-11T13:38:07.370Z,83.09
2023-05-11T13:40:37.346Z,83.09
2023-05-11T13:43:14.528Z,82.91
2023-05-11T13:45:44.432Z,82.83
2023-05-11T13:48:12.798Z,82.50
2023-05-11T13:50:41.419Z,82.86
2023-05-11T13:53:11.643Z,83.01
2023-05-11T13:55:43.476Z,82.87
2023-05-11T13:58:12.063Z,82.89
2023-05-11T14:00:41.072Z,82.93
2023-05-11T14:03:11.580Z,83.19
2023-05-11T14:05:41.267Z,83.30
2023-05-11T14:08:09.793Z,83.51
2023-05-11T14:10:38.276Z,83.55
2023-05-11T14:13:07.184Z,83.33
2023-05-11T14:15:38.454Z,83.30
2023-05-11T14:18:08.128Z,83.14
2023-05-11T14:20:40.753Z,82.83
2023-05-11T14:23:09.457Z,82.75
2023-05-11T14:25:38.094Z,82.76
2023-05-11T14:28:06.831Z,83.02
2023-05-11T14:30:37.857Z,83.21
2023-05-11T14:33:06.427Z,83.25
2023-05-11T14:35:35.717Z,83.52
2023-05-11T14:38:06.970Z,83.59
2023-05-11T14:40:36.532Z,83.50
2023-05-11T14:43:05.181Z,83.44
2023-05-11T14:45:33.826Z,83.50
2023-05-11T14:48:02.354Z,83.49
2023-05-11T14:50:30.782Z,83.28
2023-05-11T14:52:59.208Z,83.31
2023-05-11T14:55:29.181Z,83.33
2023-05-11T14:57:57.566Z,83.20
2023-05-11T15:00:26.817Z,83.36
2023-05-11T15:02:55.218Z,83.59
2023-05-11T15:05:23.685Z,83.38
2023-05-11T15:07:52.273Z,83.69
2023-05-11T15:10:20.682Z,83.63
2023-05-11T15:12:54.162Z,83.55
2023-05-11T15:15:22.554Z,83.54
2023-05-11T15:17:51.041Z,83.61
2023-05-11T15:20:19.860Z,83.80
2023-05-11T15:22:48.218Z,83.91
2023-05-11T15:25:16.866Z,84.23
2023-05-11T15:27:45.773Z,83.94
2023-05-11T15:30:16.520Z,84.29
2023-05-11T15:32:45.228Z,84.27
2023-05-11T15:35:14.972Z,84.47
2023-05-11T15:37:43.382Z,84.70
2023-05-11T15:40:13.939Z,84.67
2023-05-11T15:42:42.602Z,84.59
2023-05-11T15:45:11.118Z,84.79
2023-05-11T15:47:40.897Z,84.71
2023-05-11T15:50:09.483Z,84.73
2023-05-11T15:52:40.251Z,84.75
2023-05-11T15:55:09.381Z,84.80
2023-05-11T15:57:39.084Z,84.63
2023-05-11T16:00:10.355Z,84.70
2023-05-11T16:02:40.808Z,84.56
2023-05-11T16:05:09.896Z,84.45
2023-05-11T16:07:40.494Z,84.53
2023-05-11T16:10:09.969Z,84.34
2023-05-11T16:12:38.953Z,84.34
2023-05-11T16:15:08.949Z,84.01
2023-05-11T16:17:39.528Z,84.03
2023-05-11T16:20:10.375Z,84.20
2023-05-11T16:22:39.926Z,84.18
2023-05-11T16:25:09.255Z,84.30
2023-05-11T16:27:39.237Z,84.55
2023-05-11T16:30:22.333Z,84.46
2023-05-11T16:32:52.751Z,84.42
2023-05-11T16:35:22.686Z,84.30
2023-05-11T16:37:52.525Z,84.36
2023-05-11T16:40:21.732Z,84.33
2023-05-11T16:42:50.334Z,84.15
2023-05-11T16:45:18.778Z,84.26
2023-05-11T16:47:47.245Z,84.24
2023-05-11T16:50:16.585Z,84.94
2023-05-11T16:52:46.548Z,84.38
2023-05-11T16:55:16.001Z,84.67
2023-05-11T16:57:45.002Z,84.86
2023-05-11T17:00:15.310Z,84.93
2023-05-11T17:02:43.777Z,85.05
2023-05-11T17:05:13.643Z,85.22
2023-05-11T17:07:44.831Z,85.04
2023-05-11T17:10:14.629Z,85.40
2023-05-11T17:12:43.023Z,85.36
2023-05-11T17:15:11.864Z,85.29
2023-05-11T17:17:41.095Z,85.35
2023-05-11T17:20:13.802Z,85.28
2023-05-11T17:22:42.203Z,85.79
2023-05-11T17:25:11.042Z,85.45
2023-05-11T17:27:42.151Z,85.51
2023-05-11T17:30:11.390Z,85.69
2023-05-11T17:32:46.657Z,85.72
2023-05-11T17:35:15.649Z,85.46
2023-05-11T17:37:44.022Z,85.63
2023-05-11T17:40:13.142Z,85.85
2023-05-11T17:42:43.344Z,85.84
2023-05-11T17:45:12.892Z,85.57
2023-05-11T17:47:41.334Z,86.01
2023-05-11T17:50:10.581Z,85.93
2023-05-11T17:52:40.088Z,86.09
2023-05-11T17:55:10.900Z,86.22
2023-05-11T17:57:41.278Z,85.79
2023-05-11T18:00:12.609Z,85.74
2023-05-11T18:02:41.247Z,85.54
2023-05-11T18:05:10.241Z,85.84
2023-05-11T18:07:39.881Z,85.92
2023-05-11T18:10:10.297Z,85.71
2023-05-11T18:12:39.057Z,85.71
2023-05-11T18:15:08.405Z,85.53
2023-05-11T18:17:40.350Z,85.83
2023-05-11T18:20:10.293Z,85.74
2023-05-11T18:22:41.060Z,85.83
2023-05-11T18:25:09.915Z,85.59
2023-05-11T18:27:40.757Z,85.47
2023-05-11T18:30:10.169Z,85.24
2023-05-11T18:32:42.506Z,85.58
2023-05-11T18:35:10.878Z,85.75
2023-05-11T18:37:41.867Z,85.49
2023-05-11T18:40:11.191Z,85.51
2023-05-11T18:42:42.354Z,85.69
2023-05-11T18:45:11.894Z,85.68
2023-05-11T18:47:46.266Z,85.57
2023-05-11T18:50:15.057Z,85.87
2023-05-11T18:52:43.505Z,85.71
2023-05-11T18:55:11.877Z,86.02
2023-05-11T18:57:49.180Z,85.86
2023-05-11T19:00:18.415Z,86.02
2023-05-11T19:02:49.043Z,86.16
2023-05-11T19:05:17.680Z,86.22
2023-05-11T19:07:46.058Z,86.44
2023-05-11T19:10:14.687Z,86.50
2023-05-11T19:12:43.049Z,86.27
2023-05-11T19:15:11.678Z,86.33
2023-05-11T19:17:42.112Z,86.27
2023-05-11T19:20:12.875Z,86.67
2023-05-11T19:22:41.794Z,86.63
2023-05-11T19:25:11.025Z,86.65
2023-05-11T19:27:41.943Z,86.88
2023-05-11T19:30:10.935Z,87.11
2023-05-11T19:32:42.281Z,87.20
2023-05-11T19:35:14.699Z,87.21
2023-05-11T19:37:43.282Z,87.47
2023-05-11T19:40:43.979Z,87.24
2023-05-11T19:43:02.831Z,87.37
2023-05-11T19:45:33.210Z,87.23
2023-05-11T19:48:01.741Z,87.79
2023-05-11T19:50:31.659Z,87.64
2023-05-11T19:53:00.032Z,87.48
2023-05-11T19:55:28.435Z,87.73
2023-05-11T19:58:03.508Z,87.58
2023-05-11T20:00:32.201Z,87.57
2023-05-11T20:03:01.151Z,87.78
2023-05-11T20:05:31.060Z,87.44
2023-05-11T20:07:59.579Z,87.70
2023-05-11T20:10:28.055Z,87.78
2023-05-11T20:12:57.729Z,87.40
2023-05-11T20:15:26.248Z,87.68
2023-05-11T20:17:54.622Z,87.84
2023-05-11T20:20:23.081Z,87.29
2023-05-11T20:22:53.071Z,87.46
2023-05-11T20:25:21.823Z,87.38
2023-05-11T20:28:00.913Z,87.56
2023-05-11T20:30:29.297Z,87.25
2023-05-11T20:35:29.155Z,87.65
2023-05-11T20:37:58.919Z,87.46
2023-05-11T20:40:27.393Z,87.87
2023-05-11T20:42:55.812Z,87.94
2023-05-11T20:45:24.186Z,87.58
2023-05-11T20:47:52.769Z,87.99
2023-05-11T20:50:21.872Z,87.95
2023-05-11T20:52:50.421Z,87.90
2023-05-11T20:55:22.875Z,87.81
2023-05-11T20:57:51.257Z,87.66
2023-05-11T21:00:20.691Z,87.65
2023-05-11T21:02:49.338Z,87.70
2023-05-11T21:05:23.556Z,87.33
2023-05-11T21:07:53.919Z,87.44
2023-05-11T21:10:24.024Z,87.64
2023-05-11T21:12:52.404Z,87.63
2023-05-11T21:15:20.785Z,87.56
2023-05-11T21:17:50.284Z,87.86
2023-05-11T21:20:19.026Z,87.80
2023-05-11T21:22:47.630Z,88.00
2023-05-11T21:25:16.093Z,87.52
2023-05-11T21:27:45.925Z,87.67
2023-05-11T21:30:15.127Z,87.58
2023-05-11T21:32:43.838Z,87.50
2023-05-11T21:35:14.922Z,87.78
2023-05-11T21:37:49.100Z,87.27
2023-05-11T21:40:17.990Z,87.69
2023-05-11T21:42:52.395Z,87.39
2023-05-11T21:45:21.433Z,87.83
2023-05-11T21:47:49.937Z,87.49
2023-05-11T21:50:18.778Z,87.79
2023-05-11T21:52:47.295Z,87.76
2023-05-11T21:55:15.772Z,87.52
2023-05-11T21:57:45.761Z,87.68
2023-05-11T22:00:18.798Z,87.29
2023-05-11T22:02:47.481Z,87.34
2023-05-11T22:05:16.501Z,87.32
2023-05-11T22:07:45.007Z,87.46
2023-05-11T22:10:13.627Z,87.76
2023-05-11T22:12:43.567Z,87.51
2023-05-11T22:15:13.059Z,87.38
2023-05-11T22:17:43.613Z,87.93
2023-05-11T22:20:12.318Z,87.61
2023-05-11T22:22:49.942Z,88.13
2023-05-11T22:25:18.370Z,87.47
2023-05-11T22:27:46.802Z,87.58
2023-05-11T22:30:15.422Z,87.62
2023-05-11T22:32:51.084Z,87.70
2023-05-11T22:35:19.502Z,87.67
2023-05-11T22:37:48.136Z,87.77
2023-05-11T22:40:16.766Z,88.34
2023-05-11T22:42:45.277Z,88.04
2023-05-11T22:45:13.727Z,87.88
2023-05-11T22:47:43.280Z,87.62
2023-05-11T22:50:13.215Z,87.87
2023-05-11T22:52:43.862Z,87.96
2023-05-11T22:55:12.318Z,88.22
2023-05-11T22:57:40.664Z,88.32
2023-05-11T23:00:10.813Z,87.85
2023-05-11T23:02:40.371Z,87.68
2023-05-11T23:05:09.578Z,87.54
2023-05-11T23:07:39.329Z,87.56
2023-05-11T23:10:08.890Z,87.96
2023-05-11T23:12:37.311Z,88.14
2023-05-11T23:15:06.811Z,87.85
2023-05-11T23:17:40.781Z,87.84
2023-05-11T23:20:10.412Z,87.79
2023-05-11T23:22:40.141Z,87.89
2023-05-11T23:25:10.479Z,87.62
2023-05-11T23:27:39.030Z,87.42
2023-05-11T23:30:09.102Z,87.61
2023-05-11T23:32:37.782Z,87.72
2023-05-11T23:35:06.994Z,87.70
2023-05-11T23:37:35.535Z,87.50
2023-05-11T23:40:05.888Z,87.89
2023-05-11T23:42:34.262Z,87.69
2023-05-11T23:45:04.570Z,87.65
2023-05-11T23:47:33.036Z,87.80
2023-05-11T23:50:02.124Z,87.59
2023-05-11T23:52:30.776Z,87.91
2023-05-11T23:54:59.138Z,87.69
2023-05-11T23:57:28.859Z,87.31
2023-05-11T23:59:57.447Z,87.65
